Terminal Aerodrome Forecast
Issued by NWS

Home | Current Version | Previous Version | Text Only | Print | Product List | Glossary On
Versions: 1 2 3 4 5 6 7 8 9 10 11 12 13 14 15 16
000
FTUS41 KRNK 250540
TAFBCB
TAF
KBCB 250540Z 2506/2606 05012KT 6SM -RA OVC005 WS020/07040KT
      TEMPO 2507/2511 4SM RA SCT003 OVC008
     FM251100 05010KT 3SM RA OVC008 WS020/07040KT
      TEMPO 2511/2514 2SM -DZ OVC003
     FM251400 04009KT 6SM -DZ OVC008 WS020/06040KT
     FM252000 01007KT P6SM OVC012
     FM260300 VRB03KT 5SM BR SCT003 BKN025=

USA.gov is the U.S. government's official web portal to all federal, state and local government web resources and services.